Strona główna
METAR-TAF:

METAR-TAF

Lotnisko :

Port lotniczy Oslo-Gardermoen

Oslo, Norwegia

Szerokość geograficzna: 60-12N, Długość geograficzna: 011-05E, wysokość: 208 m

Aktualna obserwacja pogody

Raport powstał 33 minut temu, godzina 12:50 UTC
Wiatr 6 kt od zachód, zmienny między południowo-południowy zachód i północno-północny zachód
Temperatura 10°C
Wilgotność 32%
Ciśnienie 1016 hPa
Widzialność 10 km lub więcej
Brak chmur poniżej 1500 m i brak chmur cumulonimbus

METAR: ENGM 201250Z 27006KT 210V330 CAVOK 10/M06 Q1016 NOSIG

czas: 14:23 (13:23 UTC)

Prognoza

Prognoza ważna od 20 godzina 12 UTC do 21 godzina 12 UTC
Wiatr 8 kt od południowy zachód
Widzialność 10 km lub więcej
Mało chmury na wysokości 4000 ft
Prawdopodobieństwo 40%
od 21 godzina 04 UTC do 21 godzina 08 UTC
Widzialność: 3000 m
Przerywane chmury na wysokości 400 ft
słaby mżawka, deszcz, zamglenie

TAF: ENGM 2012/2112 23008KT 9999 FEW040 PROB40 2104/2108 3000 -DZRA BR BKN004

Obserwacja i prognoza pogody dla ponad 4000 lotnisk (raport METAR i TAF).

Dostępne stacje oznaczono żółtymi i czerwonymi punktami na mapie.

Najedź kursorem aby zobaczyć nazwę stacji.

Kliknij aby zobaczyć obserwacje i prognozy pogody.

Aby zmienić mapę: kliknij na zielony przycisk z czarnym krzyżykiem, aby powiększyć; na zielony przycisk z myślnikiem, aby pomniejszyć; na zielone strzałki, aby przejść do map sąsiednich.


METAR-TAF: